sensor_id;sensor_type;location;lat;lon;timestamp;P1;durP1;ratioP1;P2;durP2;ratioP2
36377;SDS011;22402;42.746;23.606;2023-07-20T00:01:27;9.50;;;2.83;;
36377;SDS011;22402;42.746;23.606;2023-07-20T00:03:53;14.13;;;3.20;;
36377;SDS011;22402;42.746;23.606;2023-07-20T00:06:24;9.90;;;3.27;;
36377;SDS011;22402;42.746;23.606;2023-07-20T00:08:52;13.30;;;4.50;;
36377;SDS011;22402;42.746;23.606;2023-07-20T00:11:18;4.83;;;3.10;;
36377;SDS011;22402;42.746;23.606;2023-07-20T00:13:44;13.80;;;3.13;;
36377;SDS011;22402;42.746;23.606;2023-07-20T00:16:10;7.30;;;2.83;;
36377;SDS011;22402;42.746;23.606;2023-07-20T00:18:35;6.80;;;3.00;;
36377;SDS011;22402;42.746;23.606;2023-07-20T00:21:01;10.87;;;3.77;;
36377;SDS011;22402;42.746;23.606;2023-07-20T00:23:26;13.83;;;4.00;;
36377;SDS011;22402;42.746;23.606;2023-07-20T00:25:52;8.13;;;3.10;;
36377;SDS011;22402;42.746;23.606;2023-07-20T00:28:18;8.80;;;3.60;;
36377;SDS011;22402;42.746;23.606;2023-07-20T00:30:44;8.77;;;3.97;;
36377;SDS011;22402;42.746;23.606;2023-07-20T00:33:12;13.60;;;4.00;;
36377;SDS011;22402;42.746;23.606;2023-07-20T00:35:38;12.57;;;3.50;;
36377;SDS011;22402;42.746;23.606;2023-07-20T00:38:04;11.93;;;3.67;;
36377;SDS011;22402;42.746;23.606;2023-07-20T00:40:36;15.13;;;3.90;;
36377;SDS011;22402;42.746;23.606;2023-07-20T00:43:05;14.90;;;4.17;;
36377;SDS011;22402;42.746;23.606;2023-07-20T00:45:31;10.63;;;3.83;;
36377;SDS011;22402;42.746;23.606;2023-07-20T00:47:58;8.23;;;3.40;;
36377;SDS011;22402;42.746;23.606;2023-07-20T00:50:24;11.37;;;3.77;;
36377;SDS011;22402;42.746;23.606;2023-07-20T00:52:51;10.37;;;4.20;;
36377;SDS011;22402;42.746;23.606;2023-07-20T00:55:17;11.13;;;4.53;;
36377;SDS011;22402;42.746;23.606;2023-07-20T00:57:43;10.23;;;3.63;;
36377;SDS011;22402;42.746;23.606;2023-07-20T01:00:09;11.13;;;3.80;;
36377;SDS011;22402;42.746;23.606;2023-07-20T01:02:35;12.00;;;3.80;;
36377;SDS011;22402;42.746;23.606;2023-07-20T01:05:01;10.90;;;4.30;;
36377;SDS011;22402;42.746;23.606;2023-07-20T01:07:32;8.80;;;4.47;;
36377;SDS011;22402;42.746;23.606;2023-07-20T01:10:08;19.27;;;5.73;;
36377;SDS011;22402;42.746;23.606;2023-07-20T01:12:42;9.67;;;4.13;;
36377;SDS011;22402;42.746;23.606;2023-07-20T01:15:11;6.87;;;4.20;;
36377;SDS011;22402;42.746;23.606;2023-07-20T01:17:37;13.83;;;4.67;;
36377;SDS011;22402;42.746;23.606;2023-07-20T01:20:03;10.07;;;4.70;;
36377;SDS011;22402;42.746;23.606;2023-07-20T01:22:53;9.23;;;4.53;;
36377;SDS011;22402;42.746;23.606;2023-07-20T01:31:26;14.90;;;5.17;;
36377;SDS011;22402;42.746;23.606;2023-07-20T01:33:56;8.13;;;4.60;;
36377;SDS011;22402;42.746;23.606;2023-07-20T01:36:26;9.03;;;4.40;;
36377;SDS011;22402;42.746;23.606;2023-07-20T01:38:58;15.50;;;4.10;;
36377;SDS011;22402;42.746;23.606;2023-07-20T01:41:24;12.80;;;5.43;;
36377;SDS011;22402;42.746;23.606;2023-07-20T01:43:50;16.63;;;5.10;;
36377;SDS011;22402;42.746;23.606;2023-07-20T01:46:15;10.70;;;4.67;;
36377;SDS011;22402;42.746;23.606;2023-07-20T01:48:41;14.67;;;4.90;;
36377;SDS011;22402;42.746;23.606;2023-07-20T01:51:06;14.20;;;5.63;;
36377;SDS011;22402;42.746;23.606;2023-07-20T01:53:34;13.70;;;5.47;;
36377;SDS011;22402;42.746;23.606;2023-07-20T01:55:59;9.07;;;4.37;;
36377;SDS011;22402;42.746;23.606;2023-07-20T01:58:25;11.93;;;4.50;;
36377;SDS011;22402;42.746;23.606;2023-07-20T02:00:50;10.07;;;4.90;;
36377;SDS011;22402;42.746;23.606;2023-07-20T02:03:16;17.10;;;4.97;;
36377;SDS011;22402;42.746;23.606;2023-07-20T02:05:47;8.63;;;4.90;;
36377;SDS011;22402;42.746;23.606;2023-07-20T02:08:12;6.73;;;4.53;;
36377;SDS011;22402;42.746;23.606;2023-07-20T02:10:38;9.07;;;5.47;;
36377;SDS011;22402;42.746;23.606;2023-07-20T02:13:03;12.97;;;5.10;;
36377;SDS011;22402;42.746;23.606;2023-07-20T02:15:29;13.83;;;4.93;;
36377;SDS011;22402;42.746;23.606;2023-07-20T02:17:54;11.17;;;4.40;;
36377;SDS011;22402;42.746;23.606;2023-07-20T02:20:20;9.47;;;4.83;;
36377;SDS011;22402;42.746;23.606;2023-07-20T02:22:46;15.10;;;5.60;;
36377;SDS011;22402;42.746;23.606;2023-07-20T02:25:11;8.27;;;4.93;;
36377;SDS011;22402;42.746;23.606;2023-07-20T02:27:37;18.47;;;5.20;;
36377;SDS011;22402;42.746;23.606;2023-07-20T02:30:06;11.50;;;5.00;;
36377;SDS011;22402;42.746;23.606;2023-07-20T02:32:32;10.93;;;4.50;;
36377;SDS011;22402;42.746;23.606;2023-07-20T02:34:57;18.47;;;5.70;;
36377;SDS011;22402;42.746;23.606;2023-07-20T02:37:25;10.90;;;5.70;;
36377;SDS011;22402;42.746;23.606;2023-07-20T02:39:51;7.60;;;4.90;;
36377;SDS011;22402;42.746;23.606;2023-07-20T02:42:16;14.40;;;5.10;;
36377;SDS011;22402;42.746;23.606;2023-07-20T02:44:42;8.53;;;5.50;;
36377;SDS011;22402;42.746;23.606;2023-07-20T02:47:07;9.43;;;5.13;;
36377;SDS011;22402;42.746;23.606;2023-07-20T02:52:12;12.13;;;5.37;;
36377;SDS011;22402;42.746;23.606;2023-07-20T02:54:38;11.33;;;6.03;;
36377;SDS011;22402;42.746;23.606;2023-07-20T02:57:03;9.90;;;4.90;;
36377;SDS011;22402;42.746;23.606;2023-07-20T02:59:29;13.03;;;5.57;;
36377;SDS011;22402;42.746;23.606;2023-07-20T03:01:54;7.87;;;5.20;;
36377;SDS011;22402;42.746;23.606;2023-07-20T03:04:20;9.30;;;5.70;;
36377;SDS011;22402;42.746;23.606;2023-07-20T03:06:46;12.10;;;5.77;;
36377;SDS011;22402;42.746;23.606;2023-07-20T03:09:12;10.87;;;5.20;;
36377;SDS011;22402;42.746;23.606;2023-07-20T03:11:37;9.83;;;4.87;;
36377;SDS011;22402;42.746;23.606;2023-07-20T03:14:03;11.87;;;6.20;;
36377;SDS011;22402;42.746;23.606;2023-07-20T03:16:28;12.87;;;5.67;;
36377;SDS011;22402;42.746;23.606;2023-07-20T03:18:57;22.10;;;5.23;;
36377;SDS011;22402;42.746;23.606;2023-07-20T03:21:24;12.73;;;5.37;;
36377;SDS011;22402;42.746;23.606;2023-07-20T03:23:49;7.90;;;5.33;;
36377;SDS011;22402;42.746;23.606;2023-07-20T03:26:17;8.60;;;5.07;;
36377;SDS011;22402;42.746;23.606;2023-07-20T03:28:43;12.03;;;5.53;;
36377;SDS011;22402;42.746;23.606;2023-07-20T03:31:08;8.57;;;5.33;;
36377;SDS011;22402;42.746;23.606;2023-07-20T03:33:34;10.40;;;5.47;;
36377;SDS011;22402;42.746;23.606;2023-07-20T03:36:00;10.33;;;5.53;;
36377;SDS011;22402;42.746;23.606;2023-07-20T03:38:26;9.83;;;4.70;;
36377;SDS011;22402;42.746;23.606;2023-07-20T03:43:18;12.80;;;4.90;;
36377;SDS011;22402;42.746;23.606;2023-07-20T03:45:44;9.33;;;4.83;;
36377;SDS011;22402;42.746;23.606;2023-07-20T03:48:18;11.87;;;5.67;;
36377;SDS011;22402;42.746;23.606;2023-07-20T03:50:46;10.90;;;5.40;;
36377;SDS011;22402;42.746;23.606;2023-07-20T03:53:13;12.03;;;5.27;;
36377;SDS011;22402;42.746;23.606;2023-07-20T03:55:40;12.80;;;5.57;;
36377;SDS011;22402;42.746;23.606;2023-07-20T03:58:09;9.23;;;5.23;;
36377;SDS011;22402;42.746;23.606;2023-07-20T04:00:34;7.60;;;5.27;;
36377;SDS011;22402;42.746;23.606;2023-07-20T04:03:05;7.17;;;4.83;;
36377;SDS011;22402;42.746;23.606;2023-07-20T04:05:30;10.10;;;4.70;;
36377;SDS011;22402;42.746;23.606;2023-07-20T04:07:56;11.23;;;5.00;;
36377;SDS011;22402;42.746;23.606;2023-07-20T04:10:21;9.27;;;4.87;;
36377;SDS011;22402;42.746;23.606;2023-07-20T04:12:47;8.43;;;5.10;;
36377;SDS011;22402;42.746;23.606;2023-07-20T04:15:12;14.27;;;4.20;;
36377;SDS011;22402;42.746;23.606;2023-07-20T04:17:38;9.63;;;5.10;;
36377;SDS011;22402;42.746;23.606;2023-07-20T04:20:05;15.90;;;4.93;;
36377;SDS011;22402;42.746;23.606;2023-07-20T04:22:32;6.90;;;5.07;;
36377;SDS011;22402;42.746;23.606;2023-07-20T04:24:57;11.13;;;5.37;;
36377;SDS011;22402;42.746;23.606;2023-07-20T04:27:22;10.93;;;5.10;;
36377;SDS011;22402;42.746;23.606;2023-07-20T04:29:48;10.60;;;4.77;;
36377;SDS011;22402;42.746;23.606;2023-07-20T04:32:13;6.50;;;4.63;;
36377;SDS011;22402;42.746;23.606;2023-07-20T04:34:39;11.43;;;5.70;;
36377;SDS011;22402;42.746;23.606;2023-07-20T04:37:04;11.80;;;4.03;;
36377;SDS011;22402;42.746;23.606;2023-07-20T04:39:30;14.43;;;4.53;;
36377;SDS011;22402;42.746;23.606;2023-07-20T04:41:55;6.33;;;4.20;;
36377;SDS011;22402;42.746;23.606;2023-07-20T04:44:21;10.93;;;5.47;;
36377;SDS011;22402;42.746;23.606;2023-07-20T04:46:47;12.30;;;4.97;;
36377;SDS011;22402;42.746;23.606;2023-07-20T04:49:12;9.27;;;4.93;;
36377;SDS011;22402;42.746;23.606;2023-07-20T04:51:38;9.73;;;5.10;;
36377;SDS011;22402;42.746;23.606;2023-07-20T04:54:04;12.33;;;5.60;;
36377;SDS011;22402;42.746;23.606;2023-07-20T04:56:29;8.73;;;4.77;;
36377;SDS011;22402;42.746;23.606;2023-07-20T04:58:55;8.73;;;4.20;;
36377;SDS011;22402;42.746;23.606;2023-07-20T05:01:20;10.30;;;4.40;;
36377;SDS011;22402;42.746;23.606;2023-07-20T05:03:46;14.73;;;4.50;;
36377;SDS011;22402;42.746;23.606;2023-07-20T05:06:11;8.90;;;4.00;;
36377;SDS011;22402;42.746;23.606;2023-07-20T05:08:37;10.97;;;4.97;;
36377;SDS011;22402;42.746;23.606;2023-07-20T05:11:05;10.27;;;4.93;;
36377;SDS011;22402;42.746;23.606;2023-07-20T05:13:33;10.33;;;4.60;;
36377;SDS011;22402;42.746;23.606;2023-07-20T05:15:59;11.70;;;4.47;;
36377;SDS011;22402;42.746;23.606;2023-07-20T05:18:24;7.23;;;4.47;;
36377;SDS011;22402;42.746;23.606;2023-07-20T05:20:53;11.57;;;4.43;;
36377;SDS011;22402;42.746;23.606;2023-07-20T05:23:20;8.77;;;4.10;;
36377;SDS011;22402;42.746;23.606;2023-07-20T05:25:45;16.50;;;5.00;;
36377;SDS011;22402;42.746;23.606;2023-07-20T05:28:12;9.77;;;4.47;;
36377;SDS011;22402;42.746;23.606;2023-07-20T05:30:37;12.80;;;4.97;;
36377;SDS011;22402;42.746;23.606;2023-07-20T05:33:02;8.63;;;4.60;;
36377;SDS011;22402;42.746;23.606;2023-07-20T05:35:28;12.00;;;5.30;;
36377;SDS011;22402;42.746;23.606;2023-07-20T05:37:54;10.10;;;4.50;;
36377;SDS011;22402;42.746;23.606;2023-07-20T05:40:19;7.00;;;4.30;;
36377;SDS011;22402;42.746;23.606;2023-07-20T05:42:46;9.23;;;4.57;;
36377;SDS011;22402;42.746;23.606;2023-07-20T05:45:13;5.77;;;4.30;;
36377;SDS011;22402;42.746;23.606;2023-07-20T05:47:39;11.60;;;4.00;;
36377;SDS011;22402;42.746;23.606;2023-07-20T05:50:05;11.40;;;4.50;;
36377;SDS011;22402;42.746;23.606;2023-07-20T05:52:31;8.03;;;3.60;;
36377;SDS011;22402;42.746;23.606;2023-07-20T05:54:57;6.40;;;3.80;;
36377;SDS011;22402;42.746;23.606;2023-07-20T05:57:22;7.67;;;3.40;;
36377;SDS011;22402;42.746;23.606;2023-07-20T05:59:48;6.90;;;4.13;;
36377;SDS011;22402;42.746;23.606;2023-07-20T06:02:13;9.17;;;3.43;;
36377;SDS011;22402;42.746;23.606;2023-07-20T06:04:39;7.70;;;2.97;;
36377;SDS011;22402;42.746;23.606;2023-07-20T06:07:04;10.13;;;3.13;;
36377;SDS011;22402;42.746;23.606;2023-07-20T06:09:30;8.80;;;3.37;;
36377;SDS011;22402;42.746;23.606;2023-07-20T06:11:56;7.00;;;3.17;;
36377;SDS011;22402;42.746;23.606;2023-07-20T06:14:21;17.43;;;3.90;;
36377;SDS011;22402;42.746;23.606;2023-07-20T06:16:47;13.10;;;3.37;;
36377;SDS011;22402;42.746;23.606;2023-07-20T06:19:15;11.47;;;2.97;;
36377;SDS011;22402;42.746;23.606;2023-07-20T06:21:43;9.30;;;3.63;;
36377;SDS011;22402;42.746;23.606;2023-07-20T06:24:09;6.80;;;3.73;;
36377;SDS011;22402;42.746;23.606;2023-07-20T06:26:34;6.27;;;3.43;;
36377;SDS011;22402;42.746;23.606;2023-07-20T06:29:04;4.70;;;3.60;;
36377;SDS011;22402;42.746;23.606;2023-07-20T06:31:31;6.90;;;3.37;;
36377;SDS011;22402;42.746;23.606;2023-07-20T06:33:57;17.83;;;3.97;;
36377;SDS011;22402;42.746;23.606;2023-07-20T06:36:22;8.93;;;3.40;;
36377;SDS011;22402;42.746;23.606;2023-07-20T06:38:48;8.50;;;3.50;;
36377;SDS011;22402;42.746;23.606;2023-07-20T06:41:13;8.67;;;2.70;;
36377;SDS011;22402;42.746;23.606;2023-07-20T06:43:38;5.40;;;3.33;;
36377;SDS011;22402;42.746;23.606;2023-07-20T06:46:04;10.53;;;3.57;;
36377;SDS011;22402;42.746;23.606;2023-07-20T06:48:29;8.47;;;3.13;;
36377;SDS011;22402;42.746;23.606;2023-07-20T06:50:55;9.33;;;3.00;;
36377;SDS011;22402;42.746;23.606;2023-07-20T06:53:21;5.13;;;2.77;;
36377;SDS011;22402;42.746;23.606;2023-07-20T06:55:46;10.23;;;3.20;;
36377;SDS011;22402;42.746;23.606;2023-07-20T06:58:12;6.53;;;3.50;;
36377;SDS011;22402;42.746;23.606;2023-07-20T07:00:37;3.83;;;2.87;;
36377;SDS011;22402;42.746;23.606;2023-07-20T07:03:03;5.53;;;3.13;;
36377;SDS011;22402;42.746;23.606;2023-07-20T07:05:28;10.83;;;3.17;;
36377;SDS011;22402;42.746;23.606;2023-07-20T07:07:54;5.93;;;2.30;;
36377;SDS011;22402;42.746;23.606;2023-07-20T07:10:19;5.67;;;2.50;;
36377;SDS011;22402;42.746;23.606;2023-07-20T07:12:44;7.77;;;2.77;;
36377;SDS011;22402;42.746;23.606;2023-07-20T07:15:10;6.47;;;3.23;;
36377;SDS011;22402;42.746;23.606;2023-07-20T07:17:36;10.23;;;2.97;;
36377;SDS011;22402;42.746;23.606;2023-07-20T07:20:01;6.70;;;3.27;;
36377;SDS011;22402;42.746;23.606;2023-07-20T07:22:28;9.63;;;2.43;;
36377;SDS011;22402;42.746;23.606;2023-07-20T07:24:54;3.43;;;2.73;;
36377;SDS011;22402;42.746;23.606;2023-07-20T07:27:20;5.57;;;2.80;;
36377;SDS011;22402;42.746;23.606;2023-07-20T07:29:45;8.23;;;2.87;;
36377;SDS011;22402;42.746;23.606;2023-07-20T07:32:11;6.00;;;2.53;;
36377;SDS011;22402;42.746;23.606;2023-07-20T07:34:37;7.33;;;2.60;;
36377;SDS011;22402;42.746;23.606;2023-07-20T07:37:03;6.27;;;2.70;;
36377;SDS011;22402;42.746;23.606;2023-07-20T07:39:29;8.47;;;3.50;;
36377;SDS011;22402;42.746;23.606;2023-07-20T07:41:55;6.13;;;2.63;;
36377;SDS011;22402;42.746;23.606;2023-07-20T07:44:24;7.70;;;2.60;;
36377;SDS011;22402;42.746;23.606;2023-07-20T07:46:49;4.70;;;2.60;;
36377;SDS011;22402;42.746;23.606;2023-07-20T07:49:15;7.07;;;2.87;;
36377;SDS011;22402;42.746;23.606;2023-07-20T07:51:42;6.00;;;2.77;;
36377;SDS011;22402;42.746;23.606;2023-07-20T07:54:09;6.93;;;2.90;;
36377;SDS011;22402;42.746;23.606;2023-07-20T07:56:35;7.13;;;2.50;;
36377;SDS011;22402;42.746;23.606;2023-07-20T07:59:00;7.60;;;2.63;;
36377;SDS011;22402;42.746;23.606;2023-07-20T08:01:26;6.57;;;2.40;;
36377;SDS011;22402;42.746;23.606;2023-07-20T08:03:51;7.30;;;2.53;;
36377;SDS011;22402;42.746;23.606;2023-07-20T08:06:16;5.73;;;2.80;;
36377;SDS011;22402;42.746;23.606;2023-07-20T08:08:42;4.30;;;2.63;;
36377;SDS011;22402;42.746;23.606;2023-07-20T08:11:10;9.80;;;2.90;;
36377;SDS011;22402;42.746;23.606;2023-07-20T08:13:36;10.93;;;3.03;;
36377;SDS011;22402;42.746;23.606;2023-07-20T08:16:02;9.97;;;2.47;;
36377;SDS011;22402;42.746;23.606;2023-07-20T08:18:27;10.73;;;2.50;;
36377;SDS011;22402;42.746;23.606;2023-07-20T08:20:53;7.20;;;2.87;;
36377;SDS011;22402;42.746;23.606;2023-07-20T08:23:19;6.63;;;2.27;;
36377;SDS011;22402;42.746;23.606;2023-07-20T08:25:45;8.60;;;3.13;;
36377;SDS011;22402;42.746;23.606;2023-07-20T08:28:11;10.50;;;3.03;;
36377;SDS011;22402;42.746;23.606;2023-07-20T08:30:44;7.40;;;2.60;;
36377;SDS011;22402;42.746;23.606;2023-07-20T08:33:14;8.00;;;2.73;;
36377;SDS011;22402;42.746;23.606;2023-07-20T08:35:43;10.20;;;2.83;;
36377;SDS011;22402;42.746;23.606;2023-07-20T08:38:09;10.03;;;3.50;;
36377;SDS011;22402;42.746;23.606;2023-07-20T08:40:42;17.93;;;2.73;;
36377;SDS011;22402;42.746;23.606;2023-07-20T08:43:11;9.93;;;3.00;;
36377;SDS011;22402;42.746;23.606;2023-07-20T08:45:38;13.50;;;2.87;;
36377;SDS011;22402;42.746;23.606;2023-07-20T08:48:06;6.57;;;2.60;;
36377;SDS011;22402;42.746;23.606;2023-07-20T08:50:33;8.90;;;2.47;;
36377;SDS011;22402;42.746;23.606;2023-07-20T08:52:59;7.20;;;2.27;;
36377;SDS011;22402;42.746;23.606;2023-07-20T08:55:26;8.63;;;3.27;;
36377;SDS011;22402;42.746;23.606;2023-07-20T08:57:53;8.50;;;2.50;;
36377;SDS011;22402;42.746;23.606;2023-07-20T09:00:20;8.00;;;2.83;;
36377;SDS011;22402;42.746;23.606;2023-07-20T09:02:47;9.00;;;2.67;;
36377;SDS011;22402;42.746;23.606;2023-07-20T09:05:17;6.20;;;2.50;;
36377;SDS011;22402;42.746;23.606;2023-07-20T09:07:43;13.93;;;2.13;;
36377;SDS011;22402;42.746;23.606;2023-07-20T09:10:08;9.60;;;2.40;;
36377;SDS011;22402;42.746;23.606;2023-07-20T09:12:35;11.10;;;3.00;;
36377;SDS011;22402;42.746;23.606;2023-07-20T09:15:03;7.70;;;2.13;;
36377;SDS011;22402;42.746;23.606;2023-07-20T09:17:29;7.90;;;2.57;;
36377;SDS011;22402;42.746;23.606;2023-07-20T09:19:57;8.37;;;2.20;;
36377;SDS011;22402;42.746;23.606;2023-07-20T09:22:32;11.50;;;2.30;;
36377;SDS011;22402;42.746;23.606;2023-07-20T09:24:58;11.03;;;2.60;;
36377;SDS011;22402;42.746;23.606;2023-07-20T09:27:37;7.60;;;2.30;;
36377;SDS011;22402;42.746;23.606;2023-07-20T09:30:04;9.20;;;2.23;;
36377;SDS011;22402;42.746;23.606;2023-07-20T09:35:20;4.53;;;2.13;;
36377;SDS011;22402;42.746;23.606;2023-07-20T09:40:17;5.43;;;2.00;;
36377;SDS011;22402;42.746;23.606;2023-07-20T09:42:43;5.07;;;1.77;;
36377;SDS011;22402;42.746;23.606;2023-07-20T09:45:09;6.65;;;1.70;;
36377;SDS011;22402;42.746;23.606;2023-07-20T09:47:35;5.27;;;1.80;;
36377;SDS011;22402;42.746;23.606;2023-07-20T09:50:03;3.67;;;2.05;;
36377;SDS011;22402;42.746;23.606;2023-07-20T09:52:29;7.90;;;2.00;;
36377;SDS011;22402;42.746;23.606;2023-07-20T09:54:55;10.48;;;2.20;;
36377;SDS011;22402;42.746;23.606;2023-07-20T09:57:22;4.78;;;1.75;;
36377;SDS011;22402;42.746;23.606;2023-07-20T09:59:48;8.23;;;1.90;;
36377;SDS011;22402;42.746;23.606;2023-07-20T10:02:24;4.50;;;1.40;;
36377;SDS011;22402;42.746;23.606;2023-07-20T10:04:55;4.47;;;1.58;;
36377;SDS011;22402;42.746;23.606;2023-07-20T10:07:24;5.13;;;1.92;;
36377;SDS011;22402;42.746;23.606;2023-07-20T10:09:52;2.35;;;1.50;;
36377;SDS011;22402;42.746;23.606;2023-07-20T10:12:19;2.17;;;1.40;;
36377;SDS011;22402;42.746;23.606;2023-07-20T10:14:54;5.40;;;2.08;;
36377;SDS011;22402;42.746;23.606;2023-07-20T10:17:47;6.28;;;1.85;;
36377;SDS011;22402;42.746;23.606;2023-07-20T10:20:22;3.78;;;1.77;;
36377;SDS011;22402;42.746;23.606;2023-07-20T10:22:49;4.90;;;1.73;;
36377;SDS011;22402;42.746;23.606;2023-07-20T10:25:18;8.30;;;2.00;;
36377;SDS011;22402;42.746;23.606;2023-07-20T10:27:47;6.43;;;2.07;;
36377;SDS011;22402;42.746;23.606;2023-07-20T10:30:13;4.47;;;1.73;;
36377;SDS011;22402;42.746;23.606;2023-07-20T10:32:39;3.60;;;2.20;;
36377;SDS011;22402;42.746;23.606;2023-07-20T10:35:15;5.97;;;2.10;;
36377;SDS011;22402;42.746;23.606;2023-07-20T10:37:50;3.63;;;1.77;;
36377;SDS011;22402;42.746;23.606;2023-07-20T10:40:24;6.17;;;2.27;;
36377;SDS011;22402;42.746;23.606;2023-07-20T10:42:57;5.17;;;2.00;;
36377;SDS011;22402;42.746;23.606;2023-07-20T10:45:40;12.03;;;2.30;;
36377;SDS011;22402;42.746;23.606;2023-07-20T10:48:08;5.53;;;2.00;;
36377;SDS011;22402;42.746;23.606;2023-07-20T10:50:40;5.47;;;2.40;;
36377;SDS011;22402;42.746;23.606;2023-07-20T10:53:12;5.80;;;1.70;;
36377;SDS011;22402;42.746;23.606;2023-07-20T10:55:42;5.20;;;2.40;;
36377;SDS011;22402;42.746;23.606;2023-07-20T10:58:14;5.13;;;2.50;;
36377;SDS011;22402;42.746;23.606;2023-07-20T11:01:02;5.40;;;2.40;;
36377;SDS011;22402;42.746;23.606;2023-07-20T11:03:33;5.70;;;2.40;;
36377;SDS011;22402;42.746;23.606;2023-07-20T11:06:06;4.70;;;2.30;;
36377;SDS011;22402;42.746;23.606;2023-07-20T11:11:40;4.93;;;1.70;;
36377;SDS011;22402;42.746;23.606;2023-07-20T11:14:10;4.93;;;1.63;;
36377;SDS011;22402;42.746;23.606;2023-07-20T11:16:46;7.80;;;2.30;;
36377;SDS011;22402;42.746;23.606;2023-07-20T11:19:16;3.83;;;1.80;;
36377;SDS011;22402;42.746;23.606;2023-07-20T11:21:43;7.23;;;2.17;;
36377;SDS011;22402;42.746;23.606;2023-07-20T11:24:10;5.20;;;1.80;;
36377;SDS011;22402;42.746;23.606;2023-07-20T11:26:45;5.60;;;1.67;;
36377;SDS011;22402;42.746;23.606;2023-07-20T11:29:15;6.63;;;1.83;;
36377;SDS011;22402;42.746;23.606;2023-07-20T11:31:42;6.37;;;1.63;;
36377;SDS011;22402;42.746;23.606;2023-07-20T11:34:12;4.20;;;1.67;;
36377;SDS011;22402;42.746;23.606;2023-07-20T11:36:45;4.10;;;1.70;;
36377;SDS011;22402;42.746;23.606;2023-07-20T11:39:19;4.00;;;1.73;;
36377;SDS011;22402;42.746;23.606;2023-07-20T11:41:47;3.40;;;1.53;;
36377;SDS011;22402;42.746;23.606;2023-07-20T11:44:15;3.13;;;1.30;;
36377;SDS011;22402;42.746;23.606;2023-07-20T11:46:51;5.77;;;2.13;;
36377;SDS011;22402;42.746;23.606;2023-07-20T11:49:25;4.30;;;1.63;;
36377;SDS011;22402;42.746;23.606;2023-07-20T11:51:50;6.40;;;1.57;;
36377;SDS011;22402;42.746;23.606;2023-07-20T11:54:19;5.30;;;1.75;;
36377;SDS011;22402;42.746;23.606;2023-07-20T11:56:45;6.38;;;1.75;;
36377;SDS011;22402;42.746;23.606;2023-07-20T11:59:10;5.22;;;1.40;;
36377;SDS011;22402;42.746;23.606;2023-07-20T12:01:36;5.43;;;1.98;;
36377;SDS011;22402;42.746;23.606;2023-07-20T12:04:04;3.70;;;1.45;;
36377;SDS011;22402;42.746;23.606;2023-07-20T12:06:31;4.45;;;1.40;;
36377;SDS011;22402;42.746;23.606;2023-07-20T12:08:57;2.40;;;1.10;;
36377;SDS011;22402;42.746;23.606;2023-07-20T12:11:45;3.65;;;1.63;;
36377;SDS011;22402;42.746;23.606;2023-07-20T12:14:17;5.15;;;1.70;;
36377;SDS011;22402;42.746;23.606;2023-07-20T12:16:43;6.20;;;1.52;;
36377;SDS011;22402;42.746;23.606;2023-07-20T12:19:10;3.08;;;1.75;;
36377;SDS011;22402;42.746;23.606;2023-07-20T12:21:39;4.95;;;1.63;;
36377;SDS011;22402;42.746;23.606;2023-07-20T12:24:07;7.85;;;1.65;;
36377;SDS011;22402;42.746;23.606;2023-07-20T12:26:34;2.67;;;1.60;;
36377;SDS011;22402;42.746;23.606;2023-07-20T12:29:00;2.67;;;1.25;;
36377;SDS011;22402;42.746;23.606;2023-07-20T12:31:26;1.70;;;1.17;;
36377;SDS011;22402;42.746;23.606;2023-07-20T12:33:52;2.92;;;1.38;;
36377;SDS011;22402;42.746;23.606;2023-07-20T12:36:22;3.65;;;1.30;;
36377;SDS011;22402;42.746;23.606;2023-07-20T12:38:50;4.45;;;1.50;;
36377;SDS011;22402;42.746;23.606;2023-07-20T12:41:21;4.45;;;1.30;;
36377;SDS011;22402;42.746;23.606;2023-07-20T12:43:46;4.55;;;1.67;;
36377;SDS011;22402;42.746;23.606;2023-07-20T12:46:12;2.20;;;1.33;;
36377;SDS011;22402;42.746;23.606;2023-07-20T12:48:38;3.72;;;1.50;;
36377;SDS011;22402;42.746;23.606;2023-07-20T12:51:06;2.25;;;1.35;;
36377;SDS011;22402;42.746;23.606;2023-07-20T12:53:32;4.40;;;1.10;;
36377;SDS011;22402;42.746;23.606;2023-07-20T12:55:58;2.25;;;1.52;;
36377;SDS011;22402;42.746;23.606;2023-07-20T12:58:25;1.90;;;1.27;;
36377;SDS011;22402;42.746;23.606;2023-07-20T13:00:50;2.63;;;1.40;;
36377;SDS011;22402;42.746;23.606;2023-07-20T13:03:16;4.75;;;1.27;;
36377;SDS011;22402;42.746;23.606;2023-07-20T13:05:46;3.15;;;1.50;;
36377;SDS011;22402;42.746;23.606;2023-07-20T13:08:12;4.93;;;1.35;;
36377;SDS011;22402;42.746;23.606;2023-07-20T13:10:38;3.75;;;1.40;;
36377;SDS011;22402;42.746;23.606;2023-07-20T13:13:04;2.45;;;1.23;;
36377;SDS011;22402;42.746;23.606;2023-07-20T13:15:31;3.40;;;1.38;;
36377;SDS011;22402;42.746;23.606;2023-07-20T13:17:57;2.17;;;1.50;;
36377;SDS011;22402;42.746;23.606;2023-07-20T13:20:24;5.13;;;1.45;;
36377;SDS011;22402;42.746;23.606;2023-07-20T13:22:50;10.43;;;1.98;;
36377;SDS011;22402;42.746;23.606;2023-07-20T13:25:16;3.80;;;1.55;;
36377;SDS011;22402;42.746;23.606;2023-07-20T13:27:42;5.60;;;1.45;;
36377;SDS011;22402;42.746;23.606;2023-07-20T13:30:07;6.97;;;1.48;;
36377;SDS011;22402;42.746;23.606;2023-07-20T13:32:35;6.45;;;1.77;;
36377;SDS011;22402;42.746;23.606;2023-07-20T13:35:00;1.52;;;1.00;;
36377;SDS011;22402;42.746;23.606;2023-07-20T13:37:26;4.43;;;1.67;;
36377;SDS011;22402;42.746;23.606;2023-07-20T13:39:52;7.07;;;1.92;;
36377;SDS011;22402;42.746;23.606;2023-07-20T13:42:17;5.47;;;1.52;;
36377;SDS011;22402;42.746;23.606;2023-07-20T13:44:45;2.63;;;1.25;;
36377;SDS011;22402;42.746;23.606;2023-07-20T13:47:11;2.58;;;1.27;;
36377;SDS011;22402;42.746;23.606;2023-07-20T13:49:37;5.25;;;1.65;;
36377;SDS011;22402;42.746;23.606;2023-07-20T13:52:02;2.92;;;1.80;;
36377;SDS011;22402;42.746;23.606;2023-07-20T13:54:28;3.00;;;1.20;;
36377;SDS011;22402;42.746;23.606;2023-07-20T13:56:53;3.03;;;1.60;;
36377;SDS011;22402;42.746;23.606;2023-07-20T13:59:18;3.17;;;1.30;;
36377;SDS011;22402;42.746;23.606;2023-07-20T14:01:44;3.17;;;1.42;;
36377;SDS011;22402;42.746;23.606;2023-07-20T14:04:10;3.53;;;1.33;;
36377;SDS011;22402;42.746;23.606;2023-07-20T14:06:35;2.85;;;1.50;;
36377;SDS011;22402;42.746;23.606;2023-07-20T14:09:03;3.28;;;1.67;;
36377;SDS011;22402;42.746;23.606;2023-07-20T14:11:29;5.38;;;1.98;;
36377;SDS011;22402;42.746;23.606;2023-07-20T14:13:54;7.80;;;1.98;;
36377;SDS011;22402;42.746;23.606;2023-07-20T14:16:23;8.13;;;1.52;;
36377;SDS011;22402;42.746;23.606;2023-07-20T14:18:49;4.75;;;1.85;;
36377;SDS011;22402;42.746;23.606;2023-07-20T14:21:19;5.75;;;1.80;;
36377;SDS011;22402;42.746;23.606;2023-07-20T14:23:45;6.13;;;1.90;;
36377;SDS011;22402;42.746;23.606;2023-07-20T14:26:14;6.68;;;2.33;;
36377;SDS011;22402;42.746;23.606;2023-07-20T14:28:40;6.85;;;1.90;;
36377;SDS011;22402;42.746;23.606;2023-07-20T14:31:06;4.40;;;1.60;;
36377;SDS011;22402;42.746;23.606;2023-07-20T14:33:34;2.90;;;1.57;;
36377;SDS011;22402;42.746;23.606;2023-07-20T14:36:00;5.90;;;1.73;;
36377;SDS011;22402;42.746;23.606;2023-07-20T14:38:30;4.87;;;1.50;;
36377;SDS011;22402;42.746;23.606;2023-07-20T14:40:56;2.97;;;2.07;;
36377;SDS011;22402;42.746;23.606;2023-07-20T14:43:22;5.10;;;1.77;;
36377;SDS011;22402;42.746;23.606;2023-07-20T14:45:47;7.27;;;2.07;;
36377;SDS011;22402;42.746;23.606;2023-07-20T14:48:13;4.63;;;1.77;;
36377;SDS011;22402;42.746;23.606;2023-07-20T14:50:38;5.70;;;1.60;;